Buoy 41607

sailwx.info

Track history (hours):
 
Tides and Currents Weather Stations Pressure Air Temp Water Temp Dewpoint Dewpoint Depression Visibility Wind Speed Wind Dir Waves Ship Positions

Drifting buoy 41607

Last reported at 2015-Mar-03 01:00 UTC. Time now 2015-Mar-03 03:17 UTC.
Position N 28°13' W 059°53'.

Water temperature 23.3 ° C

Date/timePositionNaut miles runAvg speedWind from/ knotsBaromVisibWave heightAir tempDewpointWater temp
2015-Mar-03 01:00N 28°13' W 059°53'0 0.5 23.3
2015-Mar-03 00:00N 28°13' W 059°53'1 1.1 23.3
2015-Mar-02 23:00N 28°13' W 059°52'0 0.0 23.4
2015-Mar-02 22:00N 28°13' W 059°52'1 0.5 23.4
2015-Mar-02 21:00N 28°13' W 059°51'0 0.4 23.5
2015-Mar-02 20:00N 28°13' W 059°52'0 0.1 23.6
2015-Mar-02 19:00N 28°13' W 059°52'2 1.2 23.7
2015-Mar-02 17:00N 28°11' W 059°50'0 0.1 23.5
2015-Mar-02 15:00N 28°11' W 059°49'0 0.2 23.3
2015-Mar-02 14:00N 28°11' W 059°49'0 0.2 23.2
2015-Mar-02 13:00N 28°11' W 059°49'1 0.7 23.1
2015-Mar-02 12:00N 28°11' W 059°49'3 1.0 23.1
2015-Mar-02 09:00N 28°11' W 059°45'1 0.3 23.1
2015-Mar-02 07:00N 28°10' W 059°45'1 0.6 23.2
2015-Mar-02 06:00N 28°11' W 059°44'0 0.1 23.2
2015-Mar-02 05:00N 28°11' W 059°44'3 1.6 23.2
2015-Mar-02 03:00N 28°11' W 059°40'1 0.7 23.2
2015-Mar-02 02:00N 28°11' W 059°40'0 0.4 23.2
2015-Mar-02 01:00N 28°11' W 059°39'1 1.1 23.2
2015-Mar-02 00:00N 28°12' W 059°39'2 1.7 23.3
2015-Mar-01 23:00N 28°12' W 059°37'1 0.3 23.3
2015-Mar-01 20:00N 28°13' W 059°36'5 0.9 23.4
2015-Mar-01 15:00N 28°16' W 059°32'1 0.8 23.2
2015-Mar-01 14:00N 28°17' W 059°31'1 0.8 23.2
2015-Mar-01 13:00N 28°17' W 059°31'3 1.4 23.2
2015-Mar-01 11:00N 28°20' W 059°29'1 0.7 23.1
2015-Mar-01 09:00N 28°21' W 059°29'1 0.9 23.0
2015-Mar-01 08:00N 28°21' W 059°28'2 1.9 23.0
2015-Mar-01 07:00N 28°22' W 059°26'0 0.0 23.0
2015-Mar-01 06:00N 28°22' W 059°26'2 0.8 23.0
2015-Mar-01 04:00N 28°24' W 059°26'1 1.3 23.0
2015-Mar-01 03:00N 28°24' W 059°25'1 1.1 23.0
2015-Mar-01 02:00N 28°25' W 059°24'1 0.8 22.9
2015-Mar-01 01:00N 28°25' W 059°23'0 0.0 23.0
2015-Mar-01 00:00N 28°25' W 059°23'2 0.9 23.0
2015-Feb-28 22:00N 28°26' W 059°21'0 0.2 23.0
2015-Feb-28 20:00N 28°26' W 059°20'0 0.0 23.1
2015-Feb-28 19:00N 28°26' W 059°20'1 0.4 23.2
2015-Feb-28 17:00N 28°26' W 059°20'0 0.0 23.1
2015-Feb-28 16:00N 28°26' W 059°20'0 0.2 23.1
2015-Feb-28 14:00N 28°25' W 059°19'1 0.4 23.0
2015-Feb-28 12:00N 28°25' W 059°19'1 1.0 23.0
2015-Feb-28 11:00N 28°24' W 059°19'2 0.8 23.1
2015-Feb-28 09:00N 28°23' W 059°18'1 0.7 23.2
2015-Feb-28 08:00N 28°23' W 059°18'1 0.5 23.3
2015-Feb-28 06:00N 28°22' W 059°18'1 0.3 23.3
2015-Feb-28 01:00N 28°21' W 059°17'0 0.4 23.5
2015-Feb-28 00:00N 28°21' W 059°18'1 0.6 23.5
2015-Feb-27 23:00N 28°20' W 059°18'0 0.1 23.5
2015-Feb-27 21:00N 28°21' W 059°18'1 0.8 23.6
2015-Feb-27 20:00N 28°20' W 059°18'1 0.4 23.6
2015-Feb-27 18:00N 28°19' W 059°18'1 1.1 23.5
2015-Feb-27 17:00N 28°18' W 059°19'0 0.1 23.5
2015-Feb-27 16:00N 28°18' W 059°18'1 0.6 23.4
2015-Feb-27 14:00N 28°17' W 059°18'0 0.1 23.2
2015-Feb-27 13:00N 28°17' W 059°18'0 0.5 23.2
2015-Feb-27 12:00N 28°17' W 059°18'1 0.4 23.2
2015-Feb-27 10:00N 28°16' W 059°17'1 0.5 23.2
2015-Feb-27 09:00N 28°17' W 059°16'0 0.3 23.2
2015-Feb-27 08:00N 28°16' W 059°16'0 0.1 23.2
2015-Feb-27 06:00N 28°16' W 059°16'0 0.1 23.2
2015-Feb-27 02:00N 28°16' W 059°16'1 0.7 23.2
2015-Feb-27 01:00N 28°16' W 059°17'3 0.4 23.2
2015-Feb-26 16:00N 28°13' W 059°19'0 0.2 23.6
2015-Feb-26 15:00N 28°13' W 059°19'2 0.8 23.5
2015-Feb-26 13:00N 28°11' W 059°20'0 0.0 23.2
2015-Feb-26 11:00N 28°11' W 059°20'0 0.2 23.1
2015-Feb-26 10:00N 28°11' W 059°19'0 0.1 23.1
2015-Feb-26 09:00N 28°11' W 059°19'1 0.2 23.1
2015-Feb-26 04:00N 28°10' W 059°20'1 0.3 23.1
2015-Feb-26 02:00N 28°10' W 059°20'0 0.2 23.1
2015-Feb-26 01:00N 28°10' W 059°20'1 1.1 23.1
2015-Feb-26 00:00N 28°10' W 059°21'1 0.3 23.1
2015-Feb-25 21:00N 28°11' W 059°22'2 0.8 23.1
2015-Feb-25 18:00N 28°10' W 059°24'2 2.2 23.1
2015-Feb-25 17:00N 28°09' W 059°27'4 0.6 23.1
2015-Feb-25 11:00N 28°07' W 059°30'0 0.5 23.0
2015-Feb-25 10:00N 28°06' W 059°30'0 0.1 23.0
2015-Feb-25 07:00N 28°07' W 059°31'0 0.5 23.0
2015-Feb-25 06:00N 28°07' W 059°31'2 0.4 23.0
2015-Feb-25 02:00N 28°08' W 059°32'3 1.0 23.0
2015-Feb-24 23:00N 28°10' W 059°35'1 0.6 23.1
2015-Feb-24 21:00N 28°11' W 059°36'1 0.8 23.2
2015-Feb-24 20:00N 28°12' W 059°36'1 1.3 23.2
2015-Feb-24 19:00N 28°12' W 059°38'3 0.8 23.2
2015-Feb-24 15:00N 28°14' W 059°41'1 1.1 23.3
2015-Feb-24 14:00N 28°15' W 059°42'1 0.4 23.3
2015-Feb-24 12:00N 28°15' W 059°42'0 0.0 23.3
2015-Feb-24 11:00N 28°15' W 059°42'1 0.6 23.3
2015-Feb-24 10:00N 28°15' W 059°43'1 0.7 23.3
2015-Feb-24 09:00N 28°16' W 059°44'0 0.4 23.3
2015-Feb-24 08:00N 28°16' W 059°44'0 0.2 23.3
2015-Feb-24 07:00N 28°16' W 059°44'1 0.2 23.3
2015-Feb-24 01:00N 28°16' W 059°45'1 0.3 23.4
2015-Feb-23 23:00N 28°16' W 059°46'1 0.7 23.4
2015-Feb-23 21:00N 28°16' W 059°47'0 0.1 23.5
2015-Feb-23 20:00N 28°16' W 059°47'1 1.5 23.5
2015-Feb-23 19:00N 28°16' W 059°46'1 0.3 23.6
2015-Feb-23 17:00N 28°17' W 059°46'1 1.0 23.6
2015-Feb-23 16:00N 28°18' W 059°46'1 0.9 23.5
2015-Feb-23 15:00N 28°17' W 059°46'0 0.1 23.4
2015-Feb-23 14:00N 28°17' W 059°46'0 0.1 23.4
2015-Feb-23 12:00N 28°17' W 059°45'0 0.2 23.3
2015-Feb-23 11:00N 28°17' W 059°45'1 0.4 23.3
2015-Feb-23 09:00N 28°18' W 059°46'1 0.4 23.3
2015-Feb-23 07:00N 28°18' W 059°45'0 0.4 23.3
2015-Feb-23 06:00N 28°19' W 059°45'2 0.4 23.3
2015-Feb-23 02:00N 28°20' W 059°44'0 0.4 23.3
2015-Feb-23 01:00N 28°20' W 059°44'1 0.7 23.3
2015-Feb-23 00:00N 28°21' W 059°44'1 0.7 23.3
2015-Feb-22 22:00N 28°22' W 059°43'1 0.7 23.3
2015-Feb-22 21:00N 28°23' W 059°43'0 0.1 23.3
2015-Feb-22 20:00N 28°23' W 059°43'2 0.7 23.4
2015-Feb-22 17:00N 28°25' W 059°43'1 0.3 23.2
2015-Feb-22 15:00N 28°26' W 059°43'1 0.6 23.1
2015-Feb-22 14:00N 28°26' W 059°42'2 1.9 23.1
2015-Feb-22 13:00N 28°28' W 059°41'0 0.0 23.0
2015-Feb-22 12:00N 28°28' W 059°41'1 0.5 23.0
2015-Feb-22 10:00N 28°29' W 059°41'1 1.4 23.0
2015-Feb-22 09:00N 28°28' W 059°40'3 0.9 23.0
2015-Feb-22 06:00N 28°31' W 059°40'3 0.9 23.0
2015-Feb-22 02:00N 28°33' W 059°37'1 0.5 23.0
2015-Feb-22 00:00N 28°34' W 059°37'3 1.0 23.1
2015-Feb-21 21:00N 28°36' W 059°34'7 0.7 23.1
2015-Feb-21 11:00N 28°41' W 059°28'3 0.5 23.1
2015-Feb-21 05:00N 28°43' W 059°27'   23.1
Track history (hours):
 
Tides and Currents Weather Stations Pressure Air Temp Water Temp Dewpoint Dewpoint Depression Visibility Wind Speed Wind Dir Waves Ship Positions

Drifting buoy 41607

Last reported at 2015-Mar-03 01:00 UTC. Time now 2015-Mar-03 03:17 UTC.
Position N 28°13' W 059°53'.

Water temperature 23.3 ° C

Date/timePositionNaut miles runAvg speedWind from/ knotsBaromVisibWave heightAir tempDewpointWater temp
2015-Mar-03 01:00N 28°13' W 059°53'0 0.5 23.3
2015-Mar-03 00:00N 28°13' W 059°53'1 1.1 23.3
2015-Mar-02 23:00N 28°13' W 059°52'0 0.0 23.4
2015-Mar-02 22:00N 28°13' W 059°52'1 0.5 23.4
2015-Mar-02 21:00N 28°13' W 059°51'0 0.4 23.5
2015-Mar-02 20:00N 28°13' W 059°52'0 0.1 23.6
2015-Mar-02 19:00N 28°13' W 059°52'2 1.2 23.7
2015-Mar-02 17:00N 28°11' W 059°50'0 0.1 23.5
2015-Mar-02 15:00N 28°11' W 059°49'0 0.2 23.3
2015-Mar-02 14:00N 28°11' W 059°49'0 0.2 23.2
2015-Mar-02 13:00N 28°11' W 059°49'1 0.7 23.1
2015-Mar-02 12:00N 28°11' W 059°49'3 1.0 23.1
2015-Mar-02 09:00N 28°11' W 059°45'1 0.3 23.1
2015-Mar-02 07:00N 28°10' W 059°45'1 0.6 23.2
2015-Mar-02 06:00N 28°11' W 059°44'0 0.1 23.2
2015-Mar-02 05:00N 28°11' W 059°44'3 1.6 23.2
2015-Mar-02 03:00N 28°11' W 059°40'1 0.7 23.2
2015-Mar-02 02:00N 28°11' W 059°40'0 0.4 23.2
2015-Mar-02 01:00N 28°11' W 059°39'1 1.1 23.2
2015-Mar-02 00:00N 28°12' W 059°39'2 1.7 23.3
2015-Mar-01 23:00N 28°12' W 059°37'1 0.3 23.3
2015-Mar-01 20:00N 28°13' W 059°36'5 0.9 23.4
2015-Mar-01 15:00N 28°16' W 059°32'1 0.8 23.2
2015-Mar-01 14:00N 28°17' W 059°31'1 0.8 23.2
2015-Mar-01 13:00N 28°17' W 059°31'3 1.4 23.2
2015-Mar-01 11:00N 28°20' W 059°29'1 0.7 23.1
2015-Mar-01 09:00N 28°21' W 059°29'1 0.9 23.0
2015-Mar-01 08:00N 28°21' W 059°28'2 1.9 23.0
2015-Mar-01 07:00N 28°22' W 059°26'0 0.0 23.0
2015-Mar-01 06:00N 28°22' W 059°26'2 0.8 23.0
2015-Mar-01 04:00N 28°24' W 059°26'1 1.3 23.0
2015-Mar-01 03:00N 28°24' W 059°25'1 1.1 23.0
2015-Mar-01 02:00N 28°25' W 059°24'1 0.8 22.9
2015-Mar-01 01:00N 28°25' W 059°23'0 0.0 23.0
2015-Mar-01 00:00N 28°25' W 059°23'2 0.9 23.0
2015-Feb-28 22:00N 28°26' W 059°21'0 0.2 23.0
2015-Feb-28 20:00N 28°26' W 059°20'0 0.0 23.1
2015-Feb-28 19:00N 28°26' W 059°20'1 0.4 23.2
2015-Feb-28 17:00N 28°26' W 059°20'0 0.0 23.1
2015-Feb-28 16:00N 28°26' W 059°20'0 0.2 23.1
2015-Feb-28 14:00N 28°25' W 059°19'1 0.4 23.0
2015-Feb-28 12:00N 28°25' W 059°19'1 1.0 23.0
2015-Feb-28 11:00N 28°24' W 059°19'2 0.8 23.1
2015-Feb-28 09:00N 28°23' W 059°18'1 0.7 23.2
2015-Feb-28 08:00N 28°23' W 059°18'1 0.5 23.3
2015-Feb-28 06:00N 28°22' W 059°18'1 0.3 23.3
2015-Feb-28 01:00N 28°21' W 059°17'0 0.4 23.5
2015-Feb-28 00:00N 28°21' W 059°18'1 0.6 23.5
2015-Feb-27 23:00N 28°20' W 059°18'0 0.1 23.5
2015-Feb-27 21:00N 28°21' W 059°18'1 0.8 23.6
2015-Feb-27 20:00N 28°20' W 059°18'1 0.4 23.6
2015-Feb-27 18:00N 28°19' W 059°18'1 1.1 23.5
2015-Feb-27 17:00N 28°18' W 059°19'0 0.1 23.5
2015-Feb-27 16:00N 28°18' W 059°18'1 0.6 23.4
2015-Feb-27 14:00N 28°17' W 059°18'0 0.1 23.2
2015-Feb-27 13:00N 28°17' W 059°18'0 0.5 23.2
2015-Feb-27 12:00N 28°17' W 059°18'1 0.4 23.2
2015-Feb-27 10:00N 28°16' W 059°17'1 0.5 23.2
2015-Feb-27 09:00N 28°17' W 059°16'0 0.3 23.2
2015-Feb-27 08:00N 28°16' W 059°16'0 0.1 23.2
2015-Feb-27 06:00N 28°16' W 059°16'0 0.1 23.2
2015-Feb-27 02:00N 28°16' W 059°16'1 0.7 23.2
2015-Feb-27 01:00N 28°16' W 059°17'3 0.4 23.2
2015-Feb-26 16:00N 28°13' W 059°19'0 0.2 23.6
2015-Feb-26 15:00N 28°13' W 059°19'2 0.8 23.5
2015-Feb-26 13:00N 28°11' W 059°20'0 0.0 23.2
2015-Feb-26 11:00N 28°11' W 059°20'0 0.2 23.1
2015-Feb-26 10:00N 28°11' W 059°19'0 0.1 23.1
2015-Feb-26 09:00N 28°11' W 059°19'1 0.2 23.1
2015-Feb-26 04:00N 28°10' W 059°20'1 0.3 23.1
2015-Feb-26 02:00N 28°10' W 059°20'0 0.2 23.1
2015-Feb-26 01:00N 28°10' W 059°20'1 1.1 23.1
2015-Feb-26 00:00N 28°10' W 059°21'1 0.3 23.1
2015-Feb-25 21:00N 28°11' W 059°22'2 0.8 23.1
2015-Feb-25 18:00N 28°10' W 059°24'2 2.2 23.1
2015-Feb-25 17:00N 28°09' W 059°27'4 0.6 23.1
2015-Feb-25 11:00N 28°07' W 059°30'0 0.5 23.0
2015-Feb-25 10:00N 28°06' W 059°30'0 0.1 23.0
2015-Feb-25 07:00N 28°07' W 059°31'0 0.5 23.0
2015-Feb-25 06:00N 28°07' W 059°31'2 0.4 23.0
2015-Feb-25 02:00N 28°08' W 059°32'3 1.0 23.0
2015-Feb-24 23:00N 28°10' W 059°35'1 0.6 23.1
2015-Feb-24 21:00N 28°11' W 059°36'1 0.8 23.2
2015-Feb-24 20:00N 28°12' W 059°36'1 1.3 23.2
2015-Feb-24 19:00N 28°12' W 059°38'3 0.8 23.2
2015-Feb-24 15:00N 28°14' W 059°41'1 1.1 23.3
2015-Feb-24 14:00N 28°15' W 059°42'1 0.4 23.3
2015-Feb-24 12:00N 28°15' W 059°42'0 0.0 23.3
2015-Feb-24 11:00N 28°15' W 059°42'1 0.6 23.3
2015-Feb-24 10:00N 28°15' W 059°43'1 0.7 23.3
2015-Feb-24 09:00N 28°16' W 059°44'0 0.4 23.3
2015-Feb-24 08:00N 28°16' W 059°44'0 0.2 23.3
2015-Feb-24 07:00N 28°16' W 059°44'1 0.2 23.3
2015-Feb-24 01:00N 28°16' W 059°45'1 0.3 23.4
2015-Feb-23 23:00N 28°16' W 059°46'1 0.7 23.4
2015-Feb-23 21:00N 28°16' W 059°47'0 0.1 23.5
2015-Feb-23 20:00N 28°16' W 059°47'1 1.5 23.5
2015-Feb-23 19:00N 28°16' W 059°46'1 0.3 23.6
2015-Feb-23 17:00N 28°17' W 059°46'1 1.0 23.6
2015-Feb-23 16:00N 28°18' W 059°46'1 0.9 23.5
2015-Feb-23 15:00N 28°17' W 059°46'0 0.1 23.4
2015-Feb-23 14:00N 28°17' W 059°46'0 0.1 23.4
2015-Feb-23 12:00N 28°17' W 059°45'0 0.2 23.3
2015-Feb-23 11:00N 28°17' W 059°45'1 0.4 23.3
2015-Feb-23 09:00N 28°18' W 059°46'1 0.4 23.3
2015-Feb-23 07:00N 28°18' W 059°45'0 0.4 23.3
2015-Feb-23 06:00N 28°19' W 059°45'2 0.4 23.3
2015-Feb-23 02:00N 28°20' W 059°44'0 0.4 23.3
2015-Feb-23 01:00N 28°20' W 059°44'1 0.7 23.3
2015-Feb-23 00:00N 28°21' W 059°44'1 0.7 23.3
2015-Feb-22 22:00N 28°22' W 059°43'1 0.7 23.3
2015-Feb-22 21:00N 28°23' W 059°43'0 0.1 23.3
2015-Feb-22 20:00N 28°23' W 059°43'2 0.7 23.4
2015-Feb-22 17:00N 28°25' W 059°43'1 0.3 23.2
2015-Feb-22 15:00N 28°26' W 059°43'1 0.6 23.1
2015-Feb-22 14:00N 28°26' W 059°42'2 1.9 23.1
2015-Feb-22 13:00N 28°28' W 059°41'0 0.0 23.0
2015-Feb-22 12:00N 28°28' W 059°41'1 0.5 23.0
2015-Feb-22 10:00N 28°29' W 059°41'1 1.4 23.0
2015-Feb-22 09:00N 28°28' W 059°40'3 0.9 23.0
2015-Feb-22 06:00N 28°31' W 059°40'3 0.9 23.0
2015-Feb-22 02:00N 28°33' W 059°37'1 0.5 23.0
2015-Feb-22 00:00N 28°34' W 059°37'3 1.0 23.1
2015-Feb-21 21:00N 28°36' W 059°34'7 0.7 23.1
2015-Feb-21 11:00N 28°41' W 059°28'3 0.5 23.1
2015-Feb-21 05:00N 28°43' W 059°27'   23.1

Dump ship's entire track history